createdAt,value
2022-09-30T00:00:15.134Z,99731.25
2022-09-30T00:02:50.568Z,99744.19
2022-09-30T00:05:24.358Z,99731.63
2022-09-30T00:07:58.168Z,99732.53
2022-09-30T00:10:31.946Z,99733.00
2022-09-30T00:13:05.609Z,99737.19
2022-09-30T00:15:39.221Z,99741.78
2022-09-30T00:18:14.858Z,99741.72
2022-09-30T00:20:48.425Z,99749.69
2022-09-30T00:23:22.362Z,99742.31
2022-09-30T00:26:00.375Z,99736.84
2022-09-30T00:28:34.667Z,99732.25
2022-09-30T00:31:10.718Z,99722.50
2022-09-30T00:34:06.872Z,99714.88
2022-09-30T00:36:45.466Z,99728.78
2022-09-30T00:39:21.298Z,99728.59
2022-09-30T00:41:59.299Z,99728.59
2022-09-30T00:44:55.505Z,99721.91
2022-09-30T00:47:47.363Z,99721.69
2022-09-30T00:50:28.167Z,99724.03
2022-09-30T00:53:09.940Z,99727.66
2022-09-30T00:55:50.535Z,99732.06
2022-09-30T00:58:30.625Z,99733.28
2022-09-30T01:01:05.134Z,99734.97
2022-09-30T01:03:42.920Z,99745.44
2022-09-30T01:06:17.238Z,99742.44
2022-09-30T01:08:51.199Z,99734.53
2022-09-30T01:11:25.130Z,99739.47
2022-09-30T01:14:03.387Z,99746.47
2022-09-30T01:16:52.692Z,99742.31
2022-09-30T01:20:08.024Z,99735.53
2022-09-30T01:22:57.137Z,99737.66
2022-09-30T01:25:56.885Z,99743.53
2022-09-30T01:29:26.787Z,99749.72
2022-09-30T01:32:13.266Z,99747.56
2022-09-30T01:34:56.267Z,99746.38
2022-09-30T01:37:41.069Z,99736.63
2022-09-30T01:40:26.197Z,99742.47
2022-09-30T01:43:10.152Z,99733.44
2022-09-30T01:45:50.673Z,99738.59
2022-09-30T01:48:31.429Z,99732.03
2022-09-30T01:51:10.071Z,99724.78
2022-09-30T01:53:48.236Z,99729.41
2022-09-30T01:56:29.729Z,99725.66
2022-09-30T01:59:08.262Z,99721.84
2022-09-30T02:01:49.392Z,99713.56
2022-09-30T02:04:29.992Z,99723.38
2022-09-30T02:07:09.573Z,99722.22
2022-09-30T02:09:49.905Z,99718.50
2022-09-30T02:12:28.310Z,99721.38
2022-09-30T02:15:07.971Z,99711.63
2022-09-30T02:17:48.458Z,99706.97
2022-09-30T02:20:28.243Z,99696.94
2022-09-30T02:23:09.182Z,99700.13
2022-09-30T02:25:46.980Z,99696.50
2022-09-30T02:28:27.627Z,99690.16
2022-09-30T02:31:05.678Z,99691.19
2022-09-30T02:33:45.068Z,99685.41
2022-09-30T02:36:25.963Z,99684.38
2022-09-30T02:39:04.802Z,99682.22
2022-09-30T02:41:45.562Z,99680.34
2022-09-30T02:44:20.240Z,99672.63
2022-09-30T02:47:04.263Z,99671.00
2022-09-30T02:49:43.405Z,99669.19
2022-09-30T02:52:27.801Z,99659.50
2022-09-30T02:55:16.653Z,99656.59
2022-09-30T02:57:59.809Z,99656.38
2022-09-30T03:00:34.048Z,99662.84
2022-09-30T03:03:12.886Z,99653.53
2022-09-30T03:05:46.540Z,99649.50
2022-09-30T03:08:20.755Z,99655.34
2022-09-30T03:10:54.921Z,99646.63
2022-09-30T03:14:09.357Z,99635.72
2022-09-30T03:17:10.548Z,99632.31
2022-09-30T03:20:01.377Z,99633.75
2022-09-30T03:23:03.472Z,99634.50
2022-09-30T03:25:47.997Z,99630.31
2022-09-30T03:28:28.070Z,99631.38
2022-09-30T03:31:10.796Z,99626.06
2022-09-30T03:33:53.396Z,99625.44
2022-09-30T03:36:33.621Z,99626.16
2022-09-30T03:39:19.568Z,99627.78
2022-09-30T03:42:00.641Z,99616.44
2022-09-30T03:44:43.120Z,99618.34
2022-09-30T03:47:20.873Z,99622.47
2022-09-30T03:50:00.952Z,99617.09
2022-09-30T03:52:35.452Z,99613.47
2022-09-30T03:55:12.501Z,99611.59
2022-09-30T03:57:49.490Z,99608.06
2022-09-30T04:00:23.496Z,99599.59
2022-09-30T04:02:58.004Z,99596.28
2022-09-30T04:05:32.469Z,99585.69
2022-09-30T04:08:06.372Z,99587.88
2022-09-30T04:10:41.768Z,99585.19
2022-09-30T04:13:15.926Z,99589.00
2022-09-30T04:15:56.020Z,99590.09
2022-09-30T04:18:30.700Z,99577.59
2022-09-30T04:21:08.098Z,99575.66
2022-09-30T04:23:43.602Z,99571.91
2022-09-30T04:26:19.862Z,99569.44
2022-09-30T04:28:58.919Z,99571.19
2022-09-30T04:31:31.888Z,99574.13
2022-09-30T04:34:04.775Z,99570.16
2022-09-30T04:36:38.798Z,99576.09
2022-09-30T04:39:12.514Z,99558.75
2022-09-30T04:41:46.865Z,99562.94
2022-09-30T04:44:22.954Z,99557.09
2022-09-30T04:46:56.815Z,99550.00
2022-09-30T04:49:30.685Z,99550.84
2022-09-30T04:52:04.529Z,99546.66
2022-09-30T04:54:37.348Z,99542.25
2022-09-30T04:57:11.277Z,99531.59
2022-09-30T04:59:45.730Z,99533.28
2022-09-30T05:02:18.634Z,99530.38
2022-09-30T05:04:52.325Z,99514.88
2022-09-30T05:07:25.149Z,99509.88
2022-09-30T05:09:59.407Z,99507.97
2022-09-30T05:12:33.446Z,99497.28
2022-09-30T05:15:10.192Z,99486.81
2022-09-30T05:17:43.795Z,99487.03
2022-09-30T05:20:21.061Z,99493.31
2022-09-30T05:22:56.780Z,99484.75
2022-09-30T05:25:30.436Z,99474.72
2022-09-30T05:28:04.758Z,99468.66
2022-09-30T05:30:40.126Z,99469.69
2022-09-30T05:33:15.172Z,99465.72
2022-09-30T05:35:49.042Z,99466.31
2022-09-30T05:38:21.893Z,99453.59
2022-09-30T05:40:54.914Z,99448.56
2022-09-30T05:43:28.736Z,99442.31
2022-09-30T05:46:03.694Z,99440.19
2022-09-30T05:48:37.375Z,99432.47
2022-09-30T05:51:11.306Z,99429.53
2022-09-30T05:53:45.127Z,99416.13
2022-09-30T05:56:18.670Z,99421.78
2022-09-30T05:58:52.472Z,99425.78
2022-09-30T06:01:26.973Z,99416.16
2022-09-30T06:04:00.933Z,99416.97
2022-09-30T06:06:34.132Z,99406.94
2022-09-30T06:09:07.829Z,99419.50
2022-09-30T06:11:42.836Z,99407.34
2022-09-30T06:14:19.119Z,99411.53
2022-09-30T06:16:54.371Z,99409.66
2022-09-30T06:19:28.178Z,99402.31
2022-09-30T06:22:01.394Z,99391.22
2022-09-30T06:24:35.127Z,99382.22
2022-09-30T06:27:08.014Z,99380.56
2022-09-30T06:29:40.845Z,99371.78
2022-09-30T06:32:15.058Z,99363.00
2022-09-30T06:34:48.199Z,99372.22
2022-09-30T06:37:21.095Z,99376.38
2022-09-30T06:39:53.904Z,99369.28
2022-09-30T06:42:26.886Z,99378.47
2022-09-30T06:44:59.795Z,99381.41
2022-09-30T06:47:34.369Z,99369.72
2022-09-30T06:50:11.882Z,99365.09
2022-09-30T06:52:48.499Z,99365.91
2022-09-30T06:55:24.346Z,99345.63
2022-09-30T06:57:58.046Z,99339.97
2022-09-30T07:00:31.149Z,99342.50
2022-09-30T07:03:09.705Z,99329.09
2022-09-30T07:05:42.499Z,99328.25
2022-09-30T07:08:15.856Z,99323.66
2022-09-30T07:10:48.741Z,99322.59
2022-09-30T07:13:21.539Z,99322.19
2022-09-30T07:15:56.562Z,99334.75
2022-09-30T07:18:30.760Z,99336.38
2022-09-30T07:21:03.633Z,99337.84
2022-09-30T07:23:37.248Z,99330.72
2022-09-30T07:26:10.835Z,99328.84
2022-09-30T07:28:45.355Z,99320.69
2022-09-30T07:31:32.370Z,99309.63
2022-09-30T07:34:08.685Z,99301.00
2022-09-30T07:36:42.899Z,99302.91
2022-09-30T07:39:16.761Z,99289.69
2022-09-30T07:41:50.662Z,99292.19
2022-09-30T07:44:26.246Z,99292.22
2022-09-30T07:47:02.778Z,99280.09
2022-09-30T07:49:38.439Z,99283.63
2022-09-30T07:52:13.871Z,99278.75
2022-09-30T07:54:50.541Z,99261.06
2022-09-30T07:57:23.803Z,99266.88
2022-09-30T07:59:56.718Z,99249.22
2022-09-30T08:02:29.787Z,99240.41
2022-09-30T08:05:04.168Z,99245.13
2022-09-30T08:07:37.122Z,99231.69
2022-09-30T08:10:11.009Z,99229.56
2022-09-30T08:12:44.035Z,99231.44
2022-09-30T08:15:17.199Z,99230.72
2022-09-30T08:17:50.091Z,99229.91
2022-09-30T08:20:24.467Z,99228.47
2022-09-30T08:22:58.228Z,99218.22
2022-09-30T08:25:31.205Z,99223.38
2022-09-30T08:28:04.278Z,99219.72
2022-09-30T08:30:37.823Z,99215.44
2022-09-30T08:33:11.807Z,99212.06
2022-09-30T08:35:46.114Z,99214.59
2022-09-30T08:38:20.171Z,99204.22
2022-09-30T08:41:03.401Z,99205.44
2022-09-30T08:43:46.883Z,99193.34
2022-09-30T08:46:36.447Z,99209.91
2022-09-30T08:49:31.557Z,99194.91
2022-09-30T08:52:19.961Z,99193.22
2022-09-30T08:55:03.659Z,99179.44
2022-09-30T08:57:43.862Z,99158.97
2022-09-30T09:00:22.585Z,99155.88
2022-09-30T09:02:58.448Z,99148.03
2022-09-30T09:05:42.616Z,99146.13
2022-09-30T09:08:27.542Z,99135.94
2022-09-30T09:11:09.080Z,99133.22
2022-09-30T09:13:52.234Z,99116.44
2022-09-30T09:16:33.656Z,99104.72
2022-09-30T09:19:11.304Z,99084.84
2022-09-30T09:21:54.668Z,99075.84
2022-09-30T09:24:31.377Z,99079.16
2022-09-30T09:27:20.845Z,99086.50
2022-09-30T09:30:05.796Z,99072.59
2022-09-30T09:32:38.896Z,99053.03
2022-09-30T09:35:16.749Z,99050.84
2022-09-30T09:38:18.770Z,99037.09
2022-09-30T09:41:02.306Z,99018.97
2022-09-30T09:43:48.365Z,99012.22
2022-09-30T09:46:27.676Z,99014.94
2022-09-30T09:49:41.700Z,99004.97
2022-09-30T09:53:03.178Z,99016.38
2022-09-30T09:55:37.748Z,99002.50
2022-09-30T09:58:14.070Z,98993.84
2022-09-30T10:01:12.885Z,98995.13
2022-09-30T10:03:48.389Z,98995.16
2022-09-30T10:06:21.341Z,98985.44
2022-09-30T10:08:55.820Z,98970.97
2022-09-30T10:11:31.055Z,98971.59
2022-09-30T10:14:05.289Z,98966.50
2022-09-30T10:16:39.224Z,98958.69
2022-09-30T10:19:21.229Z,98963.16
2022-09-30T10:22:21.636Z,98946.94
2022-09-30T10:25:12.375Z,98947.22
2022-09-30T10:27:54.299Z,98949.91
2022-09-30T10:30:49.460Z,98942.59
2022-09-30T10:33:27.830Z,98935.78
2022-09-30T10:36:09.420Z,98933.28
2022-09-30T10:39:06.865Z,98913.06
2022-09-30T10:41:40.427Z,98909.88
2022-09-30T10:44:17.733Z,98909.75
2022-09-30T10:46:54.429Z,98900.63
2022-09-30T10:49:32.287Z,98897.69
2022-09-30T10:52:05.599Z,98892.63
2022-09-30T10:54:55.316Z,98884.13
2022-09-30T10:57:30.958Z,98881.03
2022-09-30T11:00:08.937Z,98874.31
2022-09-30T11:02:49.440Z,98875.81
2022-09-30T11:05:28.790Z,98866.38
2022-09-30T11:08:10.401Z,98867.28
2022-09-30T11:10:47.572Z,98851.94
2022-09-30T11:13:26.039Z,98862.56
2022-09-30T11:16:06.511Z,98852.28
2022-09-30T11:18:46.216Z,98837.09
2022-09-30T11:21:24.057Z,98828.69
2022-09-30T11:24:03.556Z,98833.28
2022-09-30T11:26:51.070Z,98834.94
2022-09-30T11:29:52.290Z,98815.84
2022-09-30T11:32:42.027Z,98804.19
2022-09-30T11:35:30.685Z,98791.34
2022-09-30T11:38:14.333Z,98773.84
2022-09-30T11:40:57.938Z,98769.69
2022-09-30T11:43:42.820Z,98769.28
2022-09-30T11:46:41.535Z,98771.81
2022-09-30T11:49:28.297Z,98775.28
2022-09-30T11:52:11.122Z,98770.22
2022-09-30T11:55:20.704Z,98759.97
2022-09-30T11:58:05.297Z,98752.94
2022-09-30T12:00:54.215Z,98759.16
2022-09-30T12:03:34.146Z,98753.78
2022-09-30T12:06:17.792Z,98753.34
2022-09-30T12:08:58.073Z,98756.66
2022-09-30T12:11:39.182Z,98751.34
2022-09-30T12:14:18.935Z,98752.44
2022-09-30T12:16:52.087Z,98753.25
2022-09-30T12:19:30.341Z,98740.72
2022-09-30T12:22:11.173Z,98736.88
2022-09-30T12:24:46.779Z,98725.69
2022-09-30T12:27:26.756Z,98719.56
2022-09-30T12:30:18.531Z,98705.19
2022-09-30T12:33:30.310Z,98688.66
2022-09-30T12:36:42.390Z,98675.16
2022-09-30T12:39:58.385Z,98668.47
2022-09-30T12:42:51.431Z,98661.03
2022-09-30T12:45:55.081Z,98665.88
2022-09-30T12:48:31.380Z,98654.50
2022-09-30T12:51:05.382Z,98640.88
2022-09-30T12:53:40.638Z,98643.94
2022-09-30T12:56:17.307Z,98631.03
2022-09-30T12:58:53.858Z,98622.47
2022-09-30T13:01:30.844Z,98626.88
2022-09-30T13:04:33.322Z,98612.09
2022-09-30T13:07:22.013Z,98593.56
2022-09-30T13:10:01.820Z,98583.75
2022-09-30T13:12:45.755Z,98580.91
2022-09-30T13:15:41.093Z,98573.19
2022-09-30T13:18:51.961Z,98563.34
2022-09-30T13:21:26.162Z,98549.28
2022-09-30T13:24:00.757Z,98542.41
2022-09-30T13:26:37.102Z,98531.41
2022-09-30T13:29:50.290Z,98526.06
2022-09-30T13:32:38.295Z,98517.53
2022-09-30T13:35:33.531Z,98513.28
2022-09-30T13:38:18.842Z,98491.97
2022-09-30T13:41:03.672Z,98495.03
2022-09-30T13:43:44.240Z,98487.47
2022-09-30T13:46:36.604Z,98478.13
2022-09-30T13:49:16.791Z,98478.97
2022-09-30T13:51:50.792Z,98466.13
2022-09-30T13:54:32.064Z,98467.41
2022-09-30T13:57:08.615Z,98480.25
2022-09-30T14:00:00.735Z,98461.50
2022-09-30T14:03:06.304Z,98464.75
2022-09-30T14:05:56.710Z,98451.47
2022-09-30T14:08:50.445Z,98436.56
2022-09-30T14:11:42.328Z,98411.81
2022-09-30T14:14:36.861Z,98352.38
2022-09-30T14:17:30.057Z,98360.53
2022-09-30T14:20:20.249Z,98362.94
2022-09-30T14:22:55.451Z,98347.75
2022-09-30T14:25:39.161Z,98337.34
2022-09-30T14:28:17.251Z,98317.84
2022-09-30T14:31:04.010Z,98276.53
2022-09-30T14:33:39.785Z,98302.69
2022-09-30T14:36:17.247Z,98329.22
2022-09-30T14:38:55.001Z,98321.59
2022-09-30T14:41:30.047Z,98316.50
2022-09-30T14:44:05.210Z,98329.34
2022-09-30T14:46:42.725Z,98308.56
2022-09-30T14:49:18.719Z,98302.69
2022-09-30T14:51:52.543Z,98291.78
2022-09-30T14:54:29.465Z,98286.06
2022-09-30T14:57:04.930Z,98305.75
2022-09-30T14:59:42.066Z,98294.84
2022-09-30T15:02:20.361Z,98284.94
2022-09-30T15:05:01.375Z,98285.59
2022-09-30T15:07:34.588Z,98253.03
2022-09-30T15:10:19.125Z,98255.09
2022-09-30T15:12:55.174Z,98240.28
2022-09-30T15:15:35.585Z,98250.56
2022-09-30T15:18:32.769Z,98248.81
2022-09-30T15:21:10.993Z,98243.75
2022-09-30T15:23:47.409Z,98219.69
2022-09-30T15:26:24.234Z,98225.34
2022-09-30T15:28:57.135Z,98222.25
2022-09-30T15:31:31.935Z,98213.75
2022-09-30T15:34:08.785Z,98217.88
2022-09-30T15:36:41.686Z,98220.41
2022-09-30T15:39:24.368Z,98235.88
2022-09-30T15:41:58.819Z,98220.84
2022-09-30T15:44:40.339Z,98231.09
2022-09-30T15:47:13.932Z,98229.13
2022-09-30T15:49:49.831Z,98223.47
2022-09-30T15:52:30.561Z,98227.66
2022-09-30T15:55:42.226Z,98232.72
2022-09-30T15:58:38.233Z,98238.03
2022-09-30T16:01:15.749Z,98243.28
2022-09-30T16:03:55.384Z,98246.63
2022-09-30T16:06:35.813Z,98245.47
2022-09-30T16:09:22.223Z,98237.69
2022-09-30T16:12:05.600Z,98235.56
2022-09-30T16:14:49.102Z,98241.19
2022-09-30T16:17:26.203Z,98235.06
2022-09-30T16:20:03.287Z,98247.47
2022-09-30T16:22:52.343Z,98247.03
2022-09-30T16:25:28.433Z,98252.28
2022-09-30T16:28:05.230Z,98262.53
2022-09-30T16:30:44.775Z,98281.97
2022-09-30T16:33:19.331Z,98289.09
2022-09-30T16:35:52.258Z,98300.19
2022-09-30T16:38:25.870Z,98310.44
2022-09-30T16:41:01.022Z,98323.50
2022-09-30T16:43:34.978Z,98319.31
2022-09-30T16:46:10.786Z,98303.81
2022-09-30T16:48:43.950Z,98303.84
2022-09-30T16:51:18.200Z,98322.16
2022-09-30T16:53:51.091Z,98315.38
2022-09-30T16:56:26.852Z,98302.50
2022-09-30T16:58:59.740Z,98298.81
2022-09-30T17:01:33.933Z,98293.28
2022-09-30T17:04:07.569Z,98299.63
2022-09-30T17:06:41.098Z,98297.63
2022-09-30T17:09:14.773Z,98302.22
2022-09-30T17:11:50.122Z,98306.66
2022-09-30T17:14:24.683Z,98311.44
2022-09-30T17:16:59.568Z,98321.03
2022-09-30T17:19:35.777Z,98321.28
2022-09-30T17:22:09.357Z,98320.91
2022-09-30T17:24:43.138Z,98322.81
2022-09-30T17:27:15.998Z,98322.13
2022-09-30T17:29:50.038Z,98320.53
2022-09-30T17:32:24.946Z,98323.00
2022-09-30T17:34:57.887Z,98320.16
2022-09-30T17:37:31.343Z,98325.09
2022-09-30T17:40:26.462Z,98314.25
2022-09-30T17:43:07.283Z,98320.28
2022-09-30T17:45:43.311Z,98328.78
2022-09-30T17:48:18.893Z,98328.25
2022-09-30T17:50:56.642Z,98332.53
2022-09-30T17:53:31.115Z,98341.88
2022-09-30T17:56:10.630Z,98346.13
2022-09-30T17:58:45.624Z,98345.38
2022-09-30T18:01:22.276Z,98342.81
2022-09-30T18:04:01.882Z,98345.31
2022-09-30T18:06:35.854Z,98355.09
2022-09-30T18:09:09.539Z,98348.47
2022-09-30T18:11:44.187Z,98350.09
2022-09-30T18:14:18.263Z,98355.22
2022-09-30T18:16:51.982Z,98359.78
2022-09-30T18:19:27.221Z,98355.19
2022-09-30T18:22:01.173Z,98356.19
2022-09-30T18:24:52.171Z,98349.38
2022-09-30T18:27:26.425Z,98352.84
2022-09-30T18:29:59.314Z,98357.00
2022-09-30T18:32:32.781Z,98354.94
2022-09-30T18:35:12.376Z,98364.03
2022-09-30T18:37:47.719Z,98368.69
2022-09-30T18:40:22.200Z,98367.03
2022-09-30T18:42:58.550Z,98368.94
2022-09-30T18:45:33.421Z,98376.03
2022-09-30T18:48:07.945Z,98373.81
2022-09-30T18:50:42.779Z,98378.28
2022-09-30T18:53:16.081Z,98373.31
2022-09-30T18:55:49.187Z,98383.34
2022-09-30T18:58:21.966Z,98378.19
2022-09-30T19:00:55.296Z,98384.91
2022-09-30T19:03:30.262Z,98381.50
2022-09-30T19:06:11.619Z,98382.16
2022-09-30T19:08:45.215Z,98378.44
2022-09-30T19:11:18.527Z,98384.16
2022-09-30T19:13:56.788Z,98377.03
2022-09-30T19:16:35.436Z,98379.09
2022-09-30T19:19:11.633Z,98384.41
2022-09-30T19:21:46.132Z,98382.91
2022-09-30T19:24:19.832Z,98374.88
2022-09-30T19:26:54.736Z,98376.81
2022-09-30T19:29:28.367Z,98370.91
2022-09-30T19:32:01.327Z,98384.31
2022-09-30T19:34:34.960Z,98386.81
2022-09-30T19:37:20.896Z,98385.16
2022-09-30T19:39:57.486Z,98388.13
2022-09-30T19:42:32.734Z,98389.66
2022-09-30T19:45:08.496Z,98390.88
2022-09-30T19:47:42.192Z,98401.16
2022-09-30T19:50:15.679Z,98399.44
2022-09-30T19:52:56.982Z,98400.50
2022-09-30T19:55:33.661Z,98398.59
2022-09-30T19:58:09.716Z,98398.44
2022-09-30T20:00:43.561Z,98403.66
2022-09-30T20:03:17.605Z,98397.34
2022-09-30T20:05:51.269Z,98411.25
2022-09-30T20:08:26.248Z,98407.09
2022-09-30T20:11:04.124Z,98411.72
2022-09-30T20:13:37.283Z,98416.22
2022-09-30T20:16:11.533Z,98412.75
2022-09-30T20:18:45.857Z,98410.56
2022-09-30T20:21:19.489Z,98415.47
2022-09-30T20:23:55.514Z,98418.84
2022-09-30T20:26:28.544Z,98414.81
2022-09-30T20:29:02.240Z,98420.16
2022-09-30T20:31:36.616Z,98411.63
2022-09-30T20:34:13.757Z,98411.81
2022-09-30T20:36:48.018Z,98411.72
2022-09-30T20:39:23.682Z,98414.44
2022-09-30T20:41:58.484Z,98423.28
2022-09-30T20:44:33.381Z,98411.44
2022-09-30T20:47:07.244Z,98412.84
2022-09-30T20:49:40.937Z,98423.03
2022-09-30T20:52:14.914Z,98424.69
2022-09-30T20:54:49.543Z,98426.44
2022-09-30T20:57:22.512Z,98430.81
2022-09-30T20:59:56.027Z,98435.44
2022-09-30T21:02:30.239Z,98430.09
2022-09-30T21:05:03.889Z,98425.69
2022-09-30T21:07:37.789Z,98423.22
2022-09-30T21:10:12.935Z,98429.50
2022-09-30T21:12:46.778Z,98424.69
2022-09-30T21:15:20.269Z,98425.75
2022-09-30T21:17:55.525Z,98429.78
2022-09-30T21:20:28.396Z,98428.66
2022-09-30T21:23:03.698Z,98428.38
2022-09-30T21:25:38.623Z,98421.75
2022-09-30T21:28:12.270Z,98431.25
2022-09-30T21:30:46.225Z,98419.50
2022-09-30T21:33:20.683Z,98425.09
2022-09-30T21:36:01.541Z,98419.63
2022-09-30T21:38:35.495Z,98419.22
2022-09-30T21:41:10.513Z,98420.16
2022-09-30T21:43:44.546Z,98425.47
2022-09-30T21:46:18.798Z,98425.84
2022-09-30T21:48:54.072Z,98428.00
2022-09-30T21:51:30.471Z,98430.00
2022-09-30T21:54:03.849Z,98438.41
2022-09-30T21:56:38.481Z,98435.69
2022-09-30T21:59:12.091Z,98436.41
2022-09-30T22:01:45.337Z,98439.47
2022-09-30T22:04:20.006Z,98446.84
2022-09-30T22:06:52.883Z,98447.22
2022-09-30T22:09:26.876Z,98443.81
2022-09-30T22:12:09.077Z,98452.13
2022-09-30T22:14:43.058Z,98460.41
2022-09-30T22:17:16.636Z,98448.38
2022-09-30T22:19:50.321Z,98452.25
2022-09-30T22:22:24.994Z,98454.16
2022-09-30T22:24:58.607Z,98458.72
2022-09-30T22:27:34.290Z,98470.22
2022-09-30T22:30:09.385Z,98463.13
2022-09-30T22:32:42.953Z,98475.22
2022-09-30T22:35:34.071Z,98467.28
2022-09-30T22:38:16.793Z,98477.38
2022-09-30T22:40:50.445Z,98483.63
2022-09-30T22:43:25.750Z,98487.03
2022-09-30T22:46:03.696Z,98486.22
2022-09-30T22:48:37.499Z,98485.00
2022-09-30T22:51:16.325Z,98483.59
2022-09-30T22:53:49.828Z,98482.41
2022-09-30T22:56:23.727Z,98489.69
2022-09-30T22:58:59.678Z,98488.69
2022-09-30T23:01:33.567Z,98489.16
2022-09-30T23:04:08.291Z,98492.66
2022-09-30T23:06:41.925Z,98496.19
2022-09-30T23:09:15.783Z,98494.63
2022-09-30T23:11:51.147Z,98503.31
2022-09-30T23:14:26.417Z,98501.41
2022-09-30T23:16:59.327Z,98495.50
2022-09-30T23:19:32.840Z,98507.56
2022-09-30T23:22:07.290Z,98506.97
2022-09-30T23:24:41.244Z,98516.94
2022-09-30T23:27:14.962Z,98514.81
2022-09-30T23:29:51.160Z,98512.31
2022-09-30T23:32:25.331Z,98513.50
2022-09-30T23:34:58.847Z,98522.50
2022-09-30T23:37:32.503Z,98525.00
2022-09-30T23:40:06.763Z,98522.22
2022-09-30T23:42:40.446Z,98522.72
2022-09-30T23:45:15.546Z,98525.44
2022-09-30T23:47:49.977Z,98525.09
2022-09-30T23:50:25.558Z,98531.63
2022-09-30T23:53:00.253Z,98534.81
2022-09-30T23:55:33.881Z,98537.56
2022-09-30T23:58:08.841Z,98538.50
